createdAt,value
2022-10-08T00:03:47.798Z,12.88
2022-10-08T00:08:54.063Z,13.14
2022-10-08T00:13:57.265Z,13.02
2022-10-08T00:19:01.844Z,13.36
2022-10-08T00:24:07.922Z,13.17
2022-10-08T00:29:13.522Z,13.04
2022-10-08T00:34:18.015Z,13.13
2022-10-08T00:39:23.021Z,13.15
2022-10-08T00:44:44.015Z,13.17
2022-10-08T00:49:49.132Z,13.06
2022-10-08T00:54:53.131Z,13.15
2022-10-08T00:59:56.494Z,13.03
2022-10-08T01:04:59.225Z,12.97
2022-10-08T01:10:09.847Z,12.89
2022-10-08T01:15:22.333Z,12.97
2022-10-08T01:20:45.293Z,12.95
2022-10-08T01:25:57.580Z,11.88
2022-10-08T01:31:07.073Z,11.68
2022-10-08T01:36:11.279Z,11.36
2022-10-08T01:41:17.983Z,12.04
2022-10-08T01:46:26.314Z,11.82
2022-10-08T01:51:33.334Z,12.42
2022-10-08T01:56:39.154Z,12.74
2022-10-08T02:01:52.057Z,12.82
2022-10-08T02:06:58.168Z,12.72
2022-10-08T02:12:00.713Z,12.83
2022-10-08T02:17:14.746Z,12.88
2022-10-08T02:22:21.078Z,12.97
2022-10-08T02:27:30.686Z,13.11
2022-10-08T02:32:39.418Z,13.34
2022-10-08T02:37:46.222Z,13.35
2022-10-08T02:42:54.560Z,13.18
2022-10-08T02:48:02.188Z,12.15
2022-10-08T02:53:05.261Z,11.89
2022-10-08T02:58:10.436Z,12.13
2022-10-08T03:03:16.495Z,12.18
2022-10-08T03:08:19.739Z,12.46
2022-10-08T03:13:24.426Z,12.89
2022-10-08T03:18:28.755Z,12.51
2022-10-08T03:23:31.338Z,12.83
2022-10-08T03:28:34.022Z,12.26
2022-10-08T03:33:38.117Z,13.12
2022-10-08T03:38:40.692Z,13.27
2022-10-08T03:43:43.598Z,13.32
2022-10-08T03:48:49.811Z,13.81
2022-10-08T03:53:52.349Z,13.50
2022-10-08T03:58:56.479Z,13.75
2022-10-08T04:04:00.490Z,13.41
2022-10-08T04:09:03.059Z,13.57
2022-10-08T04:14:05.915Z,13.59
2022-10-08T04:19:11.816Z,13.37
2022-10-08T04:24:14.512Z,13.98
2022-10-08T04:29:17.292Z,13.79
2022-10-08T04:34:21.198Z,13.45
2022-10-08T04:39:23.759Z,13.97
2022-10-08T04:44:26.415Z,13.87
2022-10-08T04:49:30.392Z,13.69
2022-10-08T04:54:32.951Z,13.13
2022-10-08T04:59:35.495Z,13.55
2022-10-08T05:04:39.490Z,13.48
2022-10-08T05:09:42.051Z,13.50
2022-10-08T05:14:44.591Z,13.84
2022-10-08T05:19:48.539Z,13.72
2022-10-08T05:24:51.190Z,13.68
2022-10-08T05:29:53.732Z,13.62
2022-10-08T05:34:57.812Z,13.84
2022-10-08T05:40:03.419Z,13.58
2022-10-08T05:45:07.120Z,13.79
2022-10-08T05:50:11.261Z,13.69
2022-10-08T05:55:13.909Z,13.57
2022-10-08T06:00:19.830Z,13.49
2022-10-08T06:05:23.874Z,13.25
2022-10-08T06:10:26.527Z,12.60
2022-10-08T06:15:29.099Z,12.13
2022-10-08T06:20:33.455Z,13.09
2022-10-08T06:25:37.010Z,12.76
2022-10-08T06:30:40.942Z,12.14
2022-10-08T06:35:44.969Z,12.96
2022-10-08T06:40:47.555Z,12.57
2022-10-08T06:45:51.413Z,12.68
2022-10-08T06:51:00.828Z,13.49
2022-10-08T06:56:05.328Z,13.03
2022-10-08T07:01:08.921Z,14.03
2022-10-08T07:06:13.784Z,13.98
2022-10-08T07:11:18.497Z,13.80
2022-10-08T07:16:23.251Z,14.28
2022-10-08T07:21:28.660Z,14.21
2022-10-08T07:26:34.351Z,14.30
2022-10-08T07:31:38.592Z,14.48
2022-10-08T07:36:42.792Z,14.31
2022-10-08T07:41:45.744Z,14.25
2022-10-08T07:46:50.266Z,14.17
2022-10-08T07:51:54.203Z,14.51
2022-10-08T07:56:56.766Z,14.54
2022-10-08T08:01:59.360Z,14.90
2022-10-08T08:07:03.266Z,15.10
2022-10-08T08:12:05.861Z,15.34
2022-10-08T08:17:08.595Z,15.40
2022-10-08T08:22:15.469Z,15.31
2022-10-08T08:27:18.786Z,15.51
2022-10-08T08:32:24.944Z,15.54
2022-10-08T08:37:32.231Z,15.94
2022-10-08T08:42:50.791Z,16.22
2022-10-08T08:48:05.620Z,16.55
2022-10-08T08:53:10.871Z,16.47
2022-10-08T08:58:21.969Z,16.53
2022-10-08T09:03:30.682Z,16.50
2022-10-08T09:08:38.375Z,16.77
2022-10-08T09:13:45.555Z,16.49
2022-10-08T09:18:51.010Z,16.46
2022-10-08T09:23:54.941Z,16.15
2022-10-08T09:28:58.959Z,16.42
2022-10-08T09:34:05.491Z,16.76
2022-10-08T09:39:18.745Z,16.98
2022-10-08T09:44:23.257Z,16.57
2022-10-08T09:49:32.187Z,16.39
2022-10-08T09:54:42.904Z,16.38
2022-10-08T09:59:51.808Z,17.45
2022-10-08T10:04:56.144Z,17.92
2022-10-08T10:10:03.418Z,18.59
2022-10-08T10:15:14.638Z,18.02
2022-10-08T10:20:23.590Z,18.15
2022-10-08T10:25:35.740Z,18.12
2022-10-08T10:30:49.859Z,19.62
2022-10-08T10:35:57.415Z,18.75
2022-10-08T10:41:11.724Z,23.75
2022-10-08T10:46:25.100Z,25.31
2022-10-08T10:51:56.467Z,22.43
2022-10-08T10:57:06.202Z,20.00
2022-10-08T11:02:21.094Z,18.88
2022-10-08T11:07:37.291Z,17.95
2022-10-08T11:12:50.847Z,18.26
2022-10-08T11:18:13.373Z,18.62
2022-10-08T11:23:28.875Z,17.70
2022-10-08T11:28:45.387Z,19.06
2022-10-08T11:33:49.512Z,18.23
2022-10-08T11:38:55.299Z,19.01
2022-10-08T11:44:02.499Z,16.95
2022-10-08T11:49:43.708Z,16.89
2022-10-08T11:54:55.331Z,16.03
2022-10-08T12:00:07.736Z,15.53
2022-10-08T12:05:19.813Z,15.24
2022-10-08T12:10:32.045Z,15.71
2022-10-08T12:15:56.187Z,15.28
2022-10-08T12:21:36.626Z,15.85
2022-10-08T12:27:17.365Z,16.37
2022-10-08T12:32:23.447Z,16.31
2022-10-08T12:37:55.362Z,16.58
2022-10-08T12:43:10.105Z,16.78
2022-10-08T12:48:21.954Z,17.20
2022-10-08T12:53:28.058Z,16.16
2022-10-08T12:58:34.517Z,16.08
2022-10-08T13:03:42.519Z,15.85
2022-10-08T13:08:47.876Z,15.53
2022-10-08T13:13:51.852Z,15.62
2022-10-08T13:18:58.730Z,15.60
2022-10-08T13:24:02.850Z,15.71
2022-10-08T13:29:18.971Z,15.63
2022-10-08T13:34:24.576Z,16.20
2022-10-08T13:39:30.901Z,16.26
2022-10-08T13:44:34.650Z,16.29
2022-10-08T13:49:38.576Z,16.27
2022-10-08T13:54:42.379Z,16.12
2022-10-08T13:59:45.431Z,15.80
2022-10-08T14:04:49.395Z,17.08
2022-10-08T14:09:53.010Z,18.34
2022-10-08T14:14:55.754Z,17.99
2022-10-08T14:20:00.131Z,19.83
2022-10-08T14:25:02.680Z,19.80
2022-10-08T14:30:06.268Z,18.79
2022-10-08T14:35:11.136Z,17.75
2022-10-08T14:40:19.262Z,18.35
2022-10-08T14:45:22.816Z,17.77
2022-10-08T14:50:26.809Z,16.78
2022-10-08T14:55:29.383Z,16.50
2022-10-08T15:00:31.974Z,16.46
2022-10-08T15:05:36.032Z,16.39
2022-10-08T15:10:39.880Z,16.20
2022-10-08T15:15:42.626Z,16.09
2022-10-08T15:20:54.677Z,15.69
2022-10-08T15:25:58.672Z,15.86
2022-10-08T15:31:02.846Z,15.94
2022-10-08T15:36:21.987Z,14.96
2022-10-08T15:41:24.938Z,14.36
2022-10-08T15:46:29.051Z,13.34
2022-10-08T15:51:33.661Z,13.12
2022-10-08T15:56:36.358Z,13.21
2022-10-08T16:01:39.156Z,13.61
2022-10-08T16:06:45.193Z,14.16
2022-10-08T16:11:48.713Z,13.96
2022-10-08T16:16:52.380Z,12.75
2022-10-08T16:21:58.206Z,13.18
2022-10-08T16:27:00.871Z,13.11
2022-10-08T16:32:03.727Z,12.79
2022-10-08T16:37:07.801Z,12.44
2022-10-08T16:42:10.971Z,12.36
2022-10-08T16:47:13.667Z,12.06
2022-10-08T16:52:17.680Z,11.70
2022-10-08T16:57:20.794Z,11.36
2022-10-08T17:02:25.977Z,11.44
2022-10-08T17:07:31.154Z,11.71
2022-10-08T17:12:33.889Z,11.60
2022-10-08T17:17:37.056Z,11.62
2022-10-08T17:22:41.120Z,11.85
2022-10-08T17:27:45.515Z,12.47
2022-10-08T17:32:48.480Z,12.65
2022-10-08T17:37:54.085Z,12.42
2022-10-08T17:42:59.115Z,12.38
2022-10-08T17:48:01.668Z,11.62
2022-10-08T17:53:05.585Z,11.42
2022-10-08T17:58:08.232Z,10.93
2022-10-08T18:03:10.861Z,10.72
2022-10-08T18:08:15.069Z,11.18
2022-10-08T18:13:17.625Z,11.50
2022-10-08T18:18:20.155Z,11.95
2022-10-08T18:23:24.355Z,12.02
2022-10-08T18:28:26.958Z,12.05
2022-10-08T18:33:32.332Z,12.10
2022-10-08T18:38:36.511Z,12.08
2022-10-08T18:43:39.162Z,11.68
2022-10-08T18:48:42.039Z,11.23
2022-10-08T18:53:46.757Z,11.21
2022-10-08T18:58:50.666Z,11.50
2022-10-08T19:03:55.737Z,10.83
2022-10-08T19:09:00.913Z,11.02
2022-10-08T19:14:04.685Z,10.46
2022-10-08T19:19:11.697Z,10.28
2022-10-08T19:24:18.011Z,10.10
2022-10-08T19:29:22.655Z,10.25
2022-10-08T19:34:27.561Z,10.70
2022-10-08T19:39:33.636Z,10.80
2022-10-08T19:44:36.787Z,10.43
2022-10-08T19:49:40.811Z,11.14
2022-10-08T19:54:44.764Z,10.12
2022-10-08T19:59:47.329Z,10.05
2022-10-08T20:04:49.883Z,10.82
2022-10-08T20:09:53.840Z,11.01
2022-10-08T20:14:56.430Z,11.16
2022-10-08T20:20:20.643Z,10.60
2022-10-08T20:25:23.452Z,10.52
2022-10-08T20:30:26.162Z,10.15
2022-10-08T20:35:28.765Z,9.10
2022-10-08T20:40:32.678Z,8.89
2022-10-08T20:45:35.850Z,8.87
2022-10-08T20:50:38.355Z,8.82
2022-10-08T20:55:42.272Z,8.74
2022-10-08T21:00:44.950Z,8.17
2022-10-08T21:05:47.507Z,8.30
2022-10-08T21:10:51.752Z,8.66
2022-10-08T21:16:00.948Z,7.94
2022-10-08T21:21:04.551Z,7.68
2022-10-08T21:26:22.725Z,7.54
2022-10-08T21:31:27.070Z,7.56
2022-10-08T21:36:31.503Z,7.45
2022-10-08T21:41:37.872Z,7.45
2022-10-08T21:46:42.975Z,7.92
2022-10-08T21:51:46.294Z,7.96
2022-10-08T21:56:50.274Z,7.82
2022-10-08T22:01:52.837Z,7.26
2022-10-08T22:06:58.283Z,7.38
2022-10-08T22:12:03.298Z,7.67
2022-10-08T22:17:06.021Z,7.27
2022-10-08T22:22:08.591Z,7.26
2022-10-08T22:27:15.182Z,7.28
2022-10-08T22:32:18.448Z,7.21
2022-10-08T22:37:20.992Z,7.19
2022-10-08T22:42:24.970Z,7.01
2022-10-08T22:47:27.531Z,7.29
2022-10-08T22:52:30.173Z,7.55
2022-10-08T22:57:34.082Z,7.45
2022-10-08T23:02:36.989Z,7.18
2022-10-08T23:07:39.614Z,7.06
2022-10-08T23:12:43.552Z,7.63
2022-10-08T23:17:46.146Z,7.56
2022-10-08T23:22:48.935Z,7.66
2022-10-08T23:27:53.063Z,8.01
2022-10-08T23:32:55.627Z,7.59
2022-10-08T23:37:58.191Z,7.84
2022-10-08T23:43:02.132Z,6.96
2022-10-08T23:48:04.754Z,7.09
2022-10-08T23:53:07.335Z,7.07
2022-10-08T23:58:11.240Z,7.23
